Time;durP1;ratioP1;P1;durP2;ratioP2;P2;SDS_P1;SDS_P2;PMS_P1;PMS_P2;Temp;Humidity;BMP_temperature;BMP_pressure;BME280_temperature;BME280_humidity;BME280_pressure;Samples;Min_cycle;Max_cycle;Signal;HPM_P1;HPM_P2
2022/10/09 00:01:43;;;;;;;23.90;22.27;;;;;;;;;;5117243;28;20454;-82
2022/10/09 00:04:10;;;;;;;26.63;24.73;;;;;;;;;;5116557;27;20694;-82
2022/10/09 00:06:38;;;;;;;24.85;22.95;;;;;;;;;;5117598;28;20435;-81
2022/10/09 00:09:07;;;;;;;23.13;21.60;;;;;;;;;;5117025;28;20259;-81
2022/10/09 00:11:34;;;;;;;23.42;21.65;;;;;;;;;;5116534;28;20214;-82
2022/10/09 00:14:02;;;;;;;22.53;21.00;;;;;;;;;;5116115;28;20248;-82
2022/10/09 00:16:30;;;;;;;22.75;21.38;;;;;;;;;;5117676;28;20421;-82
2022/10/09 00:18:57;;;;;;;22.25;20.83;;;;;;;;;;5116772;28;20572;-82
2022/10/09 00:21:25;;;;;;;24.15;22.55;;;;;;;;;;5116360;28;20205;-82
2022/10/09 00:23:54;;;;;;;22.83;21.27;;;;;;;;;;5117261;28;20644;-82
2022/10/09 00:26:23;;;;;;;23.60;22.10;;;;;;;;;;5117083;28;20194;-81
2022/10/09 00:28:51;;;;;;;24.25;22.65;;;;;;;;;;5118490;27;20238;-82
2022/10/09 00:31:18;;;;;;;23.27;21.58;;;;;;;;;;5120167;28;20235;-82
2022/10/09 00:33:45;;;;;;;24.75;22.65;;;;;;;;;;5120305;28;20700;-82
2022/10/09 00:36:14;;;;;;;24.33;22.55;;;;;;;;;;5120827;28;20548;-82
2022/10/09 00:38:41;;;;;;;23.48;22.00;;;;;;;;;;5119960;27;20688;-83
2022/10/09 00:41:09;;;;;;;25.63;23.63;;;;;;;;;;5120434;28;20569;-83
2022/10/09 00:43:40;;;;;;;24.40;22.80;;;;;;;;;;5120625;28;20940;-82
2022/10/09 00:46:07;;;;;;;24.33;22.63;;;;;;;;;;5120242;28;20418;-82
2022/10/09 00:48:35;;;;;;;23.90;22.47;;;;;;;;;;5120390;28;20197;-82
2022/10/09 00:51:02;;;;;;;23.80;22.13;;;;;;;;;;5119750;28;20466;-83
2022/10/09 00:53:30;;;;;;;24.00;22.43;;;;;;;;;;5120042;28;20940;-82
2022/10/09 00:55:58;;;;;;;24.02;22.33;;;;;;;;;;5120482;28;20414;-82
2022/10/09 00:58:26;;;;;;;23.52;21.90;;;;;;;;;;5119930;28;20205;-82
2022/10/09 01:00:55;;;;;;;22.88;21.38;;;;;;;;;;5119129;27;20215;-82
2022/10/09 01:03:22;;;;;;;23.83;22.02;;;;;;;;;;5120070;28;20229;-82
2022/10/09 01:05:54;;;;;;;23.52;21.83;;;;;;;;;;5120305;28;20199;-82
2022/10/09 01:08:26;;;;;;;23.23;21.73;;;;;;;;;;5120116;28;20188;-82
2022/10/09 01:10:57;;;;;;;23.97;22.47;;;;;;;;;;5119356;27;20303;-83
2022/10/09 01:13:27;;;;;;;23.70;22.20;;;;;;;;;;5119926;28;20474;-82
2022/10/09 01:15:59;;;;;;;23.50;22.00;;;;;;;;;;5120354;28;20213;-82
2022/10/09 01:18:30;;;;;;;24.20;22.67;;;;;;;;;;5120067;28;20197;-82
2022/10/09 01:21:00;;;;;;;23.33;21.83;;;;;;;;;;5118702;27;20201;-83
2022/10/09 01:23:42;;;;;;;22.48;21.00;;;;;;;;;;5120076;28;20224;-82
2022/10/09 01:26:15;;;;;;;22.98;21.58;;;;;;;;;;5119868;28;20191;-82
2022/10/09 01:28:46;;;;;;;25.05;22.75;;;;;;;;;;5120117;28;20258;-82
2022/10/09 01:31:14;;;;;;;23.17;21.80;;;;;;;;;;5118857;27;20239;-82
2022/10/09 01:33:41;;;;;;;23.60;21.90;;;;;;;;;;5119543;28;20235;-82
2022/10/09 01:36:10;;;;;;;23.02;21.67;;;;;;;;;;5119333;28;20197;-82
2022/10/09 01:38:38;;;;;;;23.67;22.27;;;;;;;;;;5119649;28;20207;-81
2022/10/09 01:41:06;;;;;;;24.33;22.60;;;;;;;;;;5118101;27;20578;-82
2022/10/09 01:43:33;;;;;;;23.35;21.90;;;;;;;;;;5119894;28;20227;-82
2022/10/09 01:46:15;;;;;;;23.80;22.30;;;;;;;;;;5119644;28;20201;-82
2022/10/09 01:48:46;;;;;;;24.75;22.90;;;;;;;;;;5119460;28;20193;-82
2022/10/09 01:51:13;;;;;;;22.50;21.20;;;;;;;;;;5118573;27;20562;-82
2022/10/09 01:53:41;;;;;;;23.13;21.73;;;;;;;;;;5119416;28;20231;-82
2022/10/09 01:56:10;;;;;;;25.08;22.92;;;;;;;;;;5119297;28;20222;-82
2022/10/09 01:58:40;;;;;;;24.05;22.42;;;;;;;;;;5118598;28;20205;-82
2022/10/09 02:01:08;;;;;;;23.75;22.20;;;;;;;;;;5118226;28;20195;-83
2022/10/09 02:03:36;;;;;;;25.40;23.70;;;;;;;;;;5118310;27;20224;-81
2022/10/09 02:06:06;;;;;;;24.33;22.55;;;;;;;;;;5118901;28;20218;-82
2022/10/09 02:08:34;;;;;;;24.13;22.55;;;;;;;;;;5118798;28;20216;-82
2022/10/09 02:11:02;;;;;;;24.63;22.73;;;;;;;;;;5118075;28;20707;-83
2022/10/09 02:13:30;;;;;;;24.67;22.67;;;;;;;;;;5117432;27;20235;-82
2022/10/09 02:16:01;;;;;;;23.52;21.92;;;;;;;;;;5118824;28;20212;-82
2022/10/09 02:18:32;;;;;;;23.42;21.67;;;;;;;;;;5118943;28;20193;-82
2022/10/09 02:21:01;;;;;;;23.45;22.00;;;;;;;;;;5118354;28;20210;-83
2022/10/09 02:23:31;;;;;;;24.08;22.40;;;;;;;;;;5117997;27;20715;-82
2022/10/09 02:25:59;;;;;;;22.77;21.27;;;;;;;;;;5118473;28;20204;-82
2022/10/09 02:28:27;;;;;;;23.55;22.02;;;;;;;;;;5118173;28;20196;-82
2022/10/09 02:30:57;;;;;;;22.60;21.20;;;;;;;;;;5118108;28;20207;-83
2022/10/09 02:33:28;;;;;;;24.58;23.08;;;;;;;;;;5117471;27;20259;-82
2022/10/09 02:35:56;;;;;;;24.15;22.35;;;;;;;;;;5118179;28;20686;-82
2022/10/09 02:38:24;;;;;;;23.17;21.70;;;;;;;;;;5118251;28;20658;-82
2022/10/09 02:40:52;;;;;;;23.83;22.33;;;;;;;;;;5117860;28;20197;-83
2022/10/09 02:43:20;;;;;;;24.38;22.88;;;;;;;;;;5117263;27;20230;-82
2022/10/09 02:45:47;;;;;;;23.40;21.75;;;;;;;;;;5118263;28;20179;-82
2022/10/09 02:48:15;;;;;;;24.23;22.33;;;;;;;;;;5117755;28;20675;-82
2022/10/09 02:50:42;;;;;;;23.20;21.80;;;;;;;;;;5117597;28;20208;-82
2022/10/09 02:53:09;;;;;;;22.52;21.05;;;;;;;;;;5115903;28;20223;-82
2022/10/09 02:55:37;;;;;;;22.98;21.55;;;;;;;;;;5117216;27;20219;-82
2022/10/09 02:58:05;;;;;;;23.60;22.20;;;;;;;;;;5117776;28;20678;-82
2022/10/09 03:00:33;;;;;;;24.80;23.00;;;;;;;;;;5117672;28;20670;-82
2022/10/09 03:03:00;;;;;;;23.20;21.90;;;;;;;;;;5116852;28;20227;-82
2022/10/09 03:05:28;;;;;;;23.98;22.38;;;;;;;;;;5117224;27;20203;-82
2022/10/09 03:07:55;;;;;;;24.17;22.63;;;;;;;;;;5117675;28;20667;-82
2022/10/09 03:10:23;;;;;;;24.73;23.25;;;;;;;;;;5118089;28;20224;-82
2022/10/09 03:12:50;;;;;;;23.30;21.90;;;;;;;;;;5117214;28;20236;-82
2022/10/09 03:15:19;;;;;;;24.35;22.63;;;;;;;;;;5117031;27;20213;-82
2022/10/09 03:17:46;;;;;;;22.65;21.15;;;;;;;;;;5118201;28;20205;-82
2022/10/09 03:20:13;;;;;;;25.27;23.67;;;;;;;;;;5117008;28;20212;-82
2022/10/09 03:22:40;;;;;;;25.48;23.63;;;;;;;;;;5116734;28;20819;-82
2022/10/09 03:25:09;;;;;;;24.65;23.15;;;;;;;;;;5117164;27;20208;-82
2022/10/09 03:27:36;;;;;;;25.25;23.45;;;;;;;;;;5117231;28;20668;-82
2022/10/09 03:30:04;;;;;;;24.92;23.20;;;;;;;;;;5117260;28;20227;-82
2022/10/09 03:32:32;;;;;;;24.75;22.90;;;;;;;;;;5116306;28;20228;-82
2022/10/09 03:35:00;;;;;;;25.42;23.73;;;;;;;;;;5117023;28;20196;-81
2022/10/09 03:37:27;;;;;;;28.30;25.63;;;;;;;;;;5116805;27;20208;-82
2022/10/09 03:39:54;;;;;;;26.88;24.55;;;;;;;;;;5116851;28;20561;-82
2022/10/09 03:42:22;;;;;;;26.55;24.63;;;;;;;;;;5116146;28;20634;-82
2022/10/09 03:44:49;;;;;;;27.65;25.00;;;;;;;;;;5117472;28;20558;-82
2022/10/09 03:47:16;;;;;;;27.15;25.02;;;;;;;;;;5116583;27;20677;-82
2022/10/09 03:49:45;;;;;;;25.40;23.52;;;;;;;;;;5117643;28;20204;-82
2022/10/09 03:52:12;;;;;;;24.90;23.15;;;;;;;;;;5116585;28;20227;-82
2022/10/09 03:54:40;;;;;;;25.73;23.90;;;;;;;;;;5118062;28;20204;-82
2022/10/09 03:57:07;;;;;;;25.02;23.23;;;;;;;;;;5116703;27;20211;-82
2022/10/09 03:59:34;;;;;;;24.73;22.60;;;;;;;;;;5117117;28;20212;-82
2022/10/09 04:02:02;;;;;;;24.55;22.85;;;;;;;;;;5116887;28;20203;-81
2022/10/09 04:04:29;;;;;;;23.83;22.23;;;;;;;;;;5119738;28;20201;-82
2022/10/09 04:06:57;;;;;;;24.55;22.80;;;;;;;;;;5120867;27;20215;-82
2022/10/09 04:09:25;;;;;;;24.80;22.73;;;;;;;;;;5121227;28;20204;-82
2022/10/09 04:11:53;;;;;;;24.42;22.60;;;;;;;;;;5121001;28;20234;-82
2022/10/09 04:14:20;;;;;;;25.02;23.20;;;;;;;;;;5121143;28;20230;-82
2022/10/09 04:16:47;;;;;;;25.08;23.30;;;;;;;;;;5120513;27;20210;-82
2022/10/09 04:19:15;;;;;;;23.55;21.90;;;;;;;;;;5120791;28;20193;-82
2022/10/09 04:21:42;;;;;;;25.38;23.55;;;;;;;;;;5120398;28;20243;-82
2022/10/09 04:24:11;;;;;;;24.40;22.45;;;;;;;;;;5120816;28;20224;-82
2022/10/09 04:26:39;;;;;;;24.20;22.35;;;;;;;;;;5120786;27;20205;-82
2022/10/09 04:29:06;;;;;;;24.13;22.42;;;;;;;;;;5120397;28;20235;-82
2022/10/09 04:31:33;;;;;;;25.17;23.50;;;;;;;;;;5120283;28;20204;-82
2022/10/09 04:34:01;;;;;;;23.48;22.02;;;;;;;;;;5120958;28;20699;-82
2022/10/09 04:36:28;;;;;;;23.67;22.08;;;;;;;;;;5121195;28;20204;-82
2022/10/09 04:38:55;;;;;;;23.77;22.25;;;;;;;;;;5120046;27;20212;-82
2022/10/09 04:41:24;;;;;;;24.83;22.95;;;;;;;;;;5120361;28;20214;-81
2022/10/09 04:43:55;;;;;;;23.85;22.10;;;;;;;;;;5119913;28;20249;-82
2022/10/09 04:46:22;;;;;;;24.58;22.77;;;;;;;;;;5120454;28;20189;-82
2022/10/09 04:48:50;;;;;;;25.45;23.65;;;;;;;;;;5120036;27;20207;-82
2022/10/09 04:51:18;;;;;;;23.00;21.35;;;;;;;;;;5120246;28;20597;-82
2022/10/09 04:53:45;;;;;;;23.70;22.20;;;;;;;;;;5120251;28;20232;-82
2022/10/09 04:56:13;;;;;;;24.98;23.17;;;;;;;;;;5119995;28;20241;-82
2022/10/09 04:58:42;;;;;;;25.17;23.20;;;;;;;;;;5119723;27;20214;-82
2022/10/09 05:01:10;;;;;;;24.08;22.08;;;;;;;;;;5119611;28;20683;-82
2022/10/09 05:03:38;;;;;;;23.75;22.20;;;;;;;;;;5120665;28;20220;-82
2022/10/09 05:06:07;;;;;;;23.95;22.25;;;;;;;;;;5120225;28;20204;-82
2022/10/09 05:08:35;;;;;;;23.90;22.30;;;;;;;;;;5119766;28;20208;-81
2022/10/09 05:11:02;;;;;;;24.50;23.00;;;;;;;;;;5119121;27;20218;-83
2022/10/09 05:13:30;;;;;;;22.65;21.30;;;;;;;;;;5119904;28;20237;-81
2022/10/09 05:16:01;;;;;;;23.17;21.65;;;;;;;;;;5118269;28;20206;-82
2022/10/09 05:18:29;;;;;;;22.92;21.30;;;;;;;;;;5119671;28;20869;-81
2022/10/09 05:20:56;;;;;;;23.08;21.58;;;;;;;;;;5118802;27;20206;-83
2022/10/09 05:23:24;;;;;;;24.77;22.83;;;;;;;;;;5119069;28;20227;-82
2022/10/09 05:25:58;;;;;;;23.65;21.90;;;;;;;;;;5119924;28;20570;-82
2022/10/09 05:28:25;;;;;;;24.27;22.58;;;;;;;;;;5119849;28;20783;-82
2022/10/09 05:30:52;;;;;;;22.73;21.33;;;;;;;;;;5119313;27;20208;-82
2022/10/09 05:33:21;;;;;;;23.63;22.23;;;;;;;;;;5118812;28;20242;-82
2022/10/09 05:35:51;;;;;;;23.67;22.00;;;;;;;;;;5119410;28;20225;-82
2022/10/09 05:38:19;;;;;;;23.33;21.63;;;;;;;;;;5119732;28;20239;-82
2022/10/09 05:40:53;;;;;;;23.25;21.60;;;;;;;;;;5118781;27;20221;-82
2022/10/09 05:43:20;;;;;;;23.40;21.52;;;;;;;;;;5119332;28;20595;-82
2022/10/09 05:45:47;;;;;;;23.17;21.67;;;;;;;;;;5119548;28;20207;-82
2022/10/09 05:48:15;;;;;;;24.88;22.83;;;;;;;;;;5118973;28;20208;-82
2022/10/09 05:50:44;;;;;;;22.80;21.40;;;;;;;;;;5118955;27;20209;-82
2022/10/09 05:53:11;;;;;;;22.10;20.70;;;;;;;;;;5118434;28;20568;-82
2022/10/09 05:55:39;;;;;;;21.75;20.48;;;;;;;;;;5118824;28;20667;-78
2022/10/09 05:58:06;;;;;;;23.40;21.60;;;;;;;;;;5115908;28;20204;-78
2022/10/09 06:00:33;;;;;;;22.35;20.90;;;;;;;;;;5115256;27;20216;-77
2022/10/09 06:03:01;;;;;;;22.30;20.95;;;;;;;;;;5116877;28;20581;-82
2022/10/09 06:05:28;;;;;;;24.25;22.17;;;;;;;;;;5118930;28;20532;-82
2022/10/09 06:07:57;;;;;;;21.50;20.30;;;;;;;;;;5118933;28;20235;-81
2022/10/09 06:10:24;;;;;;;22.77;21.42;;;;;;;;;;5115619;28;20660;-78
2022/10/09 06:12:52;;;;;;;21.55;20.25;;;;;;;;;;5114243;27;20236;-78
2022/10/09 06:15:19;;;;;;;22.83;21.42;;;;;;;;;;5115494;28;20203;-77
2022/10/09 06:17:46;;;;;;;23.52;21.65;;;;;;;;;;5115434;28;20212;-78
2022/10/09 06:20:13;;;;;;;23.98;22.58;;;;;;;;;;5115181;28;20203;-77
2022/10/09 06:22:41;;;;;;;22.58;20.85;;;;;;;;;;5114144;27;20715;-78
2022/10/09 06:25:10;;;;;;;23.80;22.15;;;;;;;;;;5115404;28;20201;-78
2022/10/09 06:27:38;;;;;;;23.15;21.83;;;;;;;;;;5114842;28;20204;-77
2022/10/09 06:30:05;;;;;;;21.95;20.63;;;;;;;;;;5115061;28;20204;-77
2022/10/09 06:32:32;;;;;;;22.40;20.45;;;;;;;;;;5113882;27;20234;-78
2022/10/09 06:35:00;;;;;;;22.02;20.52;;;;;;;;;;5115150;28;20772;-78
2022/10/09 06:37:27;;;;;;;21.63;19.83;;;;;;;;;;5115190;28;20568;-77
2022/10/09 06:39:54;;;;;;;22.40;21.10;;;;;;;;;;5115136;28;20202;-77
2022/10/09 06:42:23;;;;;;;22.20;20.63;;;;;;;;;;5114064;27;20219;-77
2022/10/09 06:44:51;;;;;;;22.77;21.25;;;;;;;;;;5115205;28;20556;-77
2022/10/09 06:47:18;;;;;;;22.08;20.77;;;;;;;;;;5114746;28;20210;-77
2022/10/09 06:49:45;;;;;;;23.58;21.75;;;;;;;;;;5115134;28;20199;-77
2022/10/09 06:52:13;;;;;;;24.23;22.40;;;;;;;;;;5114299;28;20616;-78
2022/10/09 06:54:40;;;;;;;201.93;48.40;;;;;;;;;;5114188;27;20738;-78
2022/10/09 06:57:07;;;;;;;24.98;22.85;;;;;;;;;;5114794;28;20227;-78
2022/10/09 06:59:36;;;;;;;25.08;23.17;;;;;;;;;;5114827;28;20212;-78
2022/10/09 07:02:04;;;;;;;21.45;19.85;;;;;;;;;;5114111;28;20205;-78
2022/10/09 07:04:31;;;;;;;21.85;20.55;;;;;;;;;;5113964;27;20243;-78
2022/10/09 07:06:59;;;;;;;23.67;21.80;;;;;;;;;;5114347;28;20208;-78
2022/10/09 07:09:26;;;;;;;21.40;19.95;;;;;;;;;;5114967;28;20243;-89
2022/10/09 07:11:53;;;;;;;22.23;20.67;;;;;;;;;;5114871;28;20208;-78
2022/10/09 07:14:21;;;;;;;22.30;20.73;;;;;;;;;;5114097;28;20243;-78
2022/10/09 07:16:49;;;;;;;21.45;20.13;;;;;;;;;;5114255;28;20215;-76
2022/10/09 07:19:17;;;;;;;21.13;19.48;;;;;;;;;;5112700;27;20642;-77
2022/10/09 07:21:45;;;;;;;21.00;19.70;;;;;;;;;;5114526;28;20213;-84
2022/10/09 07:24:12;;;;;;;21.20;19.65;;;;;;;;;;5114068;28;20611;-75
2022/10/09 07:26:41;;;;;;;21.20;19.90;;;;;;;;;;5115107;28;20214;-82
2022/10/09 07:29:09;;;;;;;21.87;20.47;;;;;;;;;;5115585;28;20417;-75
2022/10/09 07:31:37;;;;;;;22.80;21.23;;;;;;;;;;5112982;28;20788;-76
2022/10/09 07:34:05;;;;;;;23.70;21.50;;;;;;;;;;5113903;27;20235;-75
2022/10/09 07:36:33;;;;;;;21.70;20.13;;;;;;;;;;5114177;28;20233;-75
2022/10/09 07:39:00;;;;;;;23.20;21.05;;;;;;;;;;5113602;28;20462;-76
2022/10/09 07:41:28;;;;;;;22.80;21.13;;;;;;;;;;5113759;28;20602;-76
2022/10/09 07:43:56;;;;;;;124.45;36.80;;;;;;;;;;5113734;27;20487;-75
2022/10/09 07:46:25;;;;;;;22.42;20.50;;;;;;;;;;5113952;28;20233;-76
2022/10/09 07:48:52;;;;;;;22.17;20.47;;;;;;;;;;5114158;28;20669;-76
2022/10/09 07:51:22;;;;;;;136.80;40.90;;;;;;;;;;5113173;28;20935;-76
2022/10/09 07:53:49;;;;;;;25.40;23.17;;;;;;;;;;5113925;28;20225;-76
2022/10/09 07:56:17;;;;;;;25.52;23.08;;;;;;;;;;5114057;28;20206;-76
2022/10/09 07:58:49;;;;;;;22.83;21.07;;;;;;;;;;5113256;27;20689;-75
2022/10/09 08:01:16;;;;;;;21.80;20.13;;;;;;;;;;5113202;28;20907;-76
2022/10/09 08:03:43;;;;;;;20.43;19.00;;;;;;;;;;5113847;28;20446;-76
2022/10/09 08:06:11;;;;;;;20.17;18.93;;;;;;;;;;5114380;28;20926;-76
2022/10/09 08:08:39;;;;;;;19.73;18.53;;;;;;;;;;5113825;28;20428;-76
2022/10/09 08:11:10;;;;;;;18.60;17.57;;;;;;;;;;5113412;28;20438;-76
2022/10/09 08:13:37;;;;;;;18.53;17.10;;;;;;;;;;5113425;28;20513;-76
2022/10/09 08:16:05;;;;;;;19.60;18.27;;;;;;;;;;5113499;28;20451;-75
2022/10/09 08:18:33;;;;;;;20.53;18.77;;;;;;;;;;5113482;27;20437;-75
2022/10/09 08:21:01;;;;;;;18.27;17.30;;;;;;;;;;5113329;28;20424;-76
2022/10/09 08:23:29;;;;;;;22.90;19.00;;;;;;;;;;5113457;28;20466;-75
2022/10/09 08:25:59;;;;;;;20.47;18.33;;;;;;;;;;5113806;28;20828;-75
2022/10/09 08:28:26;;;;;;;20.67;19.17;;;;;;;;;;5113847;28;20404;-75
2022/10/09 08:30:54;;;;;;;19.30;17.57;;;;;;;;;;5113572;28;20432;-75
2022/10/09 08:33:22;;;;;;;19.87;18.20;;;;;;;;;;5113485;28;20501;-75
2022/10/09 08:35:50;;;;;;;18.73;17.33;;;;;;;;;;5113433;28;20425;-76
2022/10/09 08:38:17;;;;;;;20.90;18.97;;;;;;;;;;5113678;28;20977;-75
2022/10/09 08:40:50;;;;;;;27.33;24.70;;;;;;;;;;5113362;28;20538;-75
2022/10/09 08:43:20;;;;;;;21.77;20.00;;;;;;;;;;5113796;28;20513;-76
2022/10/09 08:45:47;;;;;;;29.97;27.20;;;;;;;;;;5113995;28;20421;-76
2022/10/09 08:48:16;;;;;;;19.83;17.93;;;;;;;;;;5113621;28;20469;-76
2022/10/09 08:50:46;;;;;;;18.37;17.20;;;;;;;;;;5114801;28;20421;-75
2022/10/09 08:53:19;;;;;;;19.10;17.90;;;;;;;;;;5115281;27;20982;-75
2022/10/09 08:55:48;;;;;;;21.20;19.73;;;;;;;;;;5132840;27;20444;-78
2022/10/09 08:58:18;;;;;;;19.77;18.30;;;;;;;;;;5140589;27;20428;-80
2022/10/09 09:00:50;;;;;;;17.73;16.53;;;;;;;;;;5137530;27;20450;-75
2022/10/09 09:03:42;;;;;;;19.30;18.00;;;;;;;;;;5136656;27;20452;-75
2022/10/09 09:06:11;;;;;;;19.27;17.80;;;;;;;;;;5098093;27;20464;-75
2022/10/09 09:08:43;;;;;;;18.67;17.27;;;;;;;;;;5137432;27;20420;-75
2022/10/09 09:11:17;;;;;;;17.57;16.57;;;;;;;;;;5136697;27;20534;-76
2022/10/09 09:13:53;;;;;;;18.30;17.07;;;;;;;;;;5136288;27;20483;-76
2022/10/09 09:16:26;;;;;;;19.60;18.30;;;;;;;;;;5137545;27;20470;-87
2022/10/09 09:18:59;;;;;;;18.40;17.20;;;;;;;;;;5117670;28;20390;-87
2022/10/09 09:21:35;;;;;;;21.80;19.97;;;;;;;;;;5117681;28;20430;-87
2022/10/09 09:24:05;;;;;;;17.30;16.47;;;;;;;;;;5117874;27;20490;-89
2022/10/09 09:26:32;;;;;;;18.60;17.30;;;;;;;;;;5118156;28;20493;-76
2022/10/09 09:29:02;;;;;;;19.07;17.77;;;;;;;;;;5116621;28;20418;-74
2022/10/09 09:31:35;;;;;;;20.63;19.07;;;;;;;;;;5115758;28;20444;-75
2022/10/09 09:34:04;;;;;;;19.60;18.00;;;;;;;;;;5114956;27;20491;-74
2022/10/09 09:36:34;;;;;;;18.80;17.60;;;;;;;;;;5116264;28;20450;-75
2022/10/09 09:39:01;;;;;;;327.80;211.40;;;;;;;;;;5115533;28;20448;-75
2022/10/09 09:41:28;;;;;;;19.80;18.27;;;;;;;;;;5115576;28;20205;-75
2022/10/09 09:43:55;;;;;;;19.70;18.43;;;;;;;;;;5117194;27;20483;-75
2022/10/09 09:46:24;;;;;;;20.33;18.93;;;;;;;;;;5157090;27;20434;-74
2022/10/09 09:48:53;;;;;;;18.07;16.90;;;;;;;;;;5157284;27;20468;-75
2022/10/09 09:51:21;;;;;;;19.23;18.13;;;;;;;;;;5156623;27;20450;-74
2022/10/09 09:53:50;;;;;;;18.37;17.17;;;;;;;;;;5156432;27;20481;-75
2022/10/09 09:56:18;;;;;;;18.50;17.53;;;;;;;;;;5156824;27;20405;-75
2022/10/09 09:58:47;;;;;;;18.17;17.17;;;;;;;;;;5157192;27;20446;-75
2022/10/09 10:01:22;;;;;;;18.40;17.30;;;;;;;;;;5155574;27;20442;-75
2022/10/09 10:03:50;;;;;;;18.30;17.03;;;;;;;;;;5156597;27;20444;-75
2022/10/09 10:06:31;;;;;;;18.83;17.33;;;;;;;;;;5156927;27;20412;-74
2022/10/09 10:08:59;;;;;;;17.40;16.50;;;;;;;;;;5157105;27;20445;-75
2022/10/09 10:11:27;;;;;;;18.30;17.20;;;;;;;;;;5156301;27;20443;-75
2022/10/09 10:13:55;;;;;;;19.00;17.60;;;;;;;;;;5156376;27;20477;-76
2022/10/09 10:16:23;;;;;;;17.53;16.33;;;;;;;;;;5156857;27;20922;-77
2022/10/09 10:18:50;;;;;;;17.90;16.40;;;;;;;;;;5156648;27;20979;-77
2022/10/09 10:21:18;;;;;;;18.80;17.33;;;;;;;;;;5155649;27;20481;-74
2022/10/09 10:23:50;;;;;;;18.70;17.60;;;;;;;;;;5156528;27;20457;-74
2022/10/09 10:26:22;;;;;;;18.60;17.50;;;;;;;;;;5156502;27;20430;-74
2022/10/09 10:28:51;;;;;;;18.70;17.50;;;;;;;;;;5156807;27;20442;-74
2022/10/09 10:31:23;;;;;;;18.67;17.57;;;;;;;;;;5156320;27;20457;-74
2022/10/09 10:33:53;;;;;;;19.40;18.17;;;;;;;;;;5155558;27;20489;-74
2022/10/09 10:36:20;;;;;;;19.80;18.53;;;;;;;;;;5155965;27;20420;-74
2022/10/09 10:38:51;;;;;;;20.30;18.70;;;;;;;;;;5156102;27;20442;-74
2022/10/09 10:41:22;;;;;;;21.03;19.50;;;;;;;;;;5145943;27;20428;-74
2022/10/09 10:43:51;;;;;;;20.00;18.90;;;;;;;;;;5134634;27;20979;-74
2022/10/09 10:46:23;;;;;;;19.97;18.87;;;;;;;;;;5137651;27;20445;-83
2022/10/09 10:48:51;;;;;;;20.90;19.50;;;;;;;;;;5140256;27;20859;-87
2022/10/09 10:51:29;;;;;;;19.90;18.67;;;;;;;;;;5137883;27;20455;-79
2022/10/09 10:54:04;;;;;;;20.37;18.90;;;;;;;;;;5142461;27;20449;-78
2022/10/09 10:56:32;;;;;;;21.17;19.40;;;;;;;;;;5141133;27;20425;-75
2022/10/09 10:59:15;;;;;;;20.57;19.27;;;;;;;;;;5134838;27;20460;-75
2022/10/09 11:01:46;;;;;;;21.03;19.40;;;;;;;;;;5135659;27;20409;-75
2022/10/09 11:04:29;;;;;;;22.90;21.37;;;;;;;;;;5134067;27;20467;-75
2022/10/09 11:07:00;;;;;;;22.10;20.60;;;;;;;;;;5139223;27;20438;-78
2022/10/09 11:09:32;;;;;;;22.67;21.27;;;;;;;;;;5140922;27;20435;-80
2022/10/09 11:12:05;;;;;;;21.40;19.93;;;;;;;;;;5135116;27;20435;-75
2022/10/09 11:14:37;;;;;;;21.23;20.03;;;;;;;;;;5134832;27;20499;-78
2022/10/09 11:17:12;;;;;;;22.10;20.60;;;;;;;;;;5136028;27;20399;-78
2022/10/09 11:19:45;;;;;;;21.53;20.20;;;;;;;;;;5135889;27;20435;-78
2022/10/09 11:22:15;;;;;;;21.93;20.20;;;;;;;;;;5135250;27;20939;-78
2022/10/09 11:24:59;;;;;;;22.77;21.43;;;;;;;;;;5135018;27;20449;-78
2022/10/09 11:27:30;;;;;;;21.33;20.03;;;;;;;;;;5135754;27;20423;-78
2022/10/09 11:29:59;;;;;;;21.97;20.60;;;;;;;;;;5136256;27;20869;-78
2022/10/09 11:32:30;;;;;;;20.17;18.97;;;;;;;;;;5134732;27;20474;-78
2022/10/09 11:34:59;;;;;;;21.10;19.80;;;;;;;;;;5134492;27;20476;-78
2022/10/09 11:37:33;;;;;;;21.70;20.23;;;;;;;;;;5135449;28;20433;-78
2022/10/09 11:40:03;;;;;;;22.00;20.70;;;;;;;;;;5135415;28;20467;-78
2022/10/09 11:42:31;;;;;;;21.83;20.40;;;;;;;;;;5134320;28;20471;-78
2022/10/09 11:45:03;;;;;;;21.80;20.40;;;;;;;;;;5134903;28;20930;-78
2022/10/09 11:47:34;;;;;;;21.53;20.33;;;;;;;;;;5134728;28;20488;-78
2022/10/09 11:50:07;;;;;;;20.70;19.50;;;;;;;;;;5135252;28;20409;-78
2022/10/09 11:52:39;;;;;;;21.53;20.33;;;;;;;;;;5133936;28;20984;-78
2022/10/09 11:55:19;;;;;;;22.60;20.80;;;;;;;;;;5134822;28;20838;-78
2022/10/09 11:57:46;;;;;;;21.77;20.57;;;;;;;;;;5134971;28;20443;-78
2022/10/09 12:00:14;;;;;;;21.80;20.57;;;;;;;;;;5140062;28;20432;-79
2022/10/09 12:02:42;;;;;;;20.97;19.67;;;;;;;;;;5138880;28;20461;-79
2022/10/09 12:05:19;;;;;;;21.10;19.70;;;;;;;;;;5140935;28;20429;-79
2022/10/09 12:07:47;;;;;;;21.50;20.00;;;;;;;;;;5140708;28;20458;-77
2022/10/09 12:10:28;;;;;;;21.13;20.03;;;;;;;;;;5137068;27;20467;-73
2022/10/09 12:12:56;;;;;;;21.53;20.33;;;;;;;;;;5133482;28;20531;-75
2022/10/09 12:15:27;;;;;;;22.17;20.80;;;;;;;;;;5134315;28;20502;-75
2022/10/09 12:17:54;;;;;;;22.73;21.07;;;;;;;;;;5133603;28;20409;-75
2022/10/09 12:20:23;;;;;;;21.53;20.23;;;;;;;;;;5134005;28;20927;-75
2022/10/09 12:22:54;;;;;;;21.93;20.53;;;;;;;;;;5133668;27;20558;-75
2022/10/09 12:25:26;;;;;;;21.63;20.23;;;;;;;;;;5136963;27;20413;-75
2022/10/09 12:27:54;;;;;;;22.30;20.90;;;;;;;;;;5138098;27;20443;-75
2022/10/09 12:30:22;;;;;;;21.47;20.20;;;;;;;;;;5137899;27;20423;-75
2022/10/09 12:32:54;;;;;;;22.10;20.70;;;;;;;;;;5136794;27;20483;-75
2022/10/09 12:35:25;;;;;;;20.67;19.47;;;;;;;;;;5137732;27;20483;-75
2022/10/09 12:37:52;;;;;;;22.43;21.00;;;;;;;;;;5137735;27;20428;-75
2022/10/09 12:40:23;;;;;;;21.70;20.27;;;;;;;;;;5137759;27;20426;-75
2022/10/09 12:42:52;;;;;;;21.87;20.60;;;;;;;;;;5137018;27;20498;-75
2022/10/09 12:45:22;;;;;;;22.70;21.40;;;;;;;;;;5137637;27;20424;-75
2022/10/09 12:47:49;;;;;;;22.40;21.00;;;;;;;;;;5137698;27;20425;-75
2022/10/09 12:50:22;;;;;;;21.87;20.37;;;;;;;;;;5137856;27;20429;-75
2022/10/09 12:52:50;;;;;;;22.43;20.93;;;;;;;;;;5136715;27;20821;-75
2022/10/09 12:55:24;;;;;;;21.47;20.07;;;;;;;;;;5137661;27;20491;-75
2022/10/09 12:57:53;;;;;;;22.63;21.10;;;;;;;;;;5137582;27;20459;-75
2022/10/09 13:00:20;;;;;;;21.07;19.73;;;;;;;;;;5137622;27;20470;-75
2022/10/09 13:02:47;;;;;;;22.33;20.83;;;;;;;;;;5136305;27;20468;-75
2022/10/09 13:05:15;;;;;;;21.03;19.83;;;;;;;;;;5137537;27;20433;-75
2022/10/09 13:07:42;;;;;;;21.23;19.93;;;;;;;;;;5137216;27;20445;-75
2022/10/09 13:10:17;;;;;;;21.50;20.20;;;;;;;;;;5137130;27;20443;-75
2022/10/09 13:12:49;;;;;;;20.90;19.70;;;;;;;;;;5136727;27;20483;-75
2022/10/09 13:15:32;;;;;;;21.60;20.20;;;;;;;;;;5137131;27;20442;-75
2022/10/09 13:18:00;;;;;;;21.20;20.00;;;;;;;;;;5137286;27;20443;-75
2022/10/09 13:20:29;;;;;;;21.20;20.00;;;;;;;;;;5137487;27;20429;-75
2022/10/09 13:22:57;;;;;;;20.90;19.47;;;;;;;;;;5136134;27;20454;-75
2022/10/09 13:25:24;;;;;;;21.00;19.50;;;;;;;;;;5137217;27;20416;-75
2022/10/09 13:27:52;;;;;;;20.93;19.83;;;;;;;;;;5137256;27;20454;-75
2022/10/09 13:30:19;;;;;;;20.80;19.50;;;;;;;;;;5137268;27;20439;-75
2022/10/09 13:32:48;;;;;;;20.10;18.80;;;;;;;;;;5136545;27;20793;-75
2022/10/09 13:35:16;;;;;;;21.77;20.47;;;;;;;;;;5137360;27;20475;-75
2022/10/09 13:37:43;;;;;;;21.30;19.90;;;;;;;;;;5136147;27;20788;-75
2022/10/09 13:40:12;;;;;;;26.30;24.37;;;;;;;;;;5137236;27;20492;-75
2022/10/09 13:42:40;;;;;;;21.97;20.57;;;;;;;;;;5136259;27;20462;-75
2022/10/09 13:45:07;;;;;;;21.77;20.43;;;;;;;;;;5136821;27;20919;-75
2022/10/09 13:47:35;;;;;;;23.40;21.67;;;;;;;;;;5136737;27;20428;-75
2022/10/09 13:50:04;;;;;;;21.33;20.13;;;;;;;;;;5136754;27;20433;-75
2022/10/09 13:52:31;;;;;;;21.33;19.97;;;;;;;;;;5135922;27;20467;-76
2022/10/09 13:54:58;;;;;;;22.20;20.53;;;;;;;;;;5136464;27;20462;-75
2022/10/09 13:57:26;;;;;;;21.33;20.23;;;;;;;;;;5136846;27;20481;-75
2022/10/09 13:59:53;;;;;;;24.00;22.10;;;;;;;;;;5136488;27;20821;-75
2022/10/09 14:02:20;;;;;;;21.20;19.87;;;;;;;;;;5136093;27;20449;-75
2022/10/09 14:04:47;;;;;;;21.03;19.90;;;;;;;;;;5136269;27;20413;-75
2022/10/09 14:07:16;;;;;;;21.37;19.97;;;;;;;;;;5136468;27;20452;-75
2022/10/09 14:09:44;;;;;;;20.90;19.80;;;;;;;;;;5136595;27;20812;-75
2022/10/09 14:12:12;;;;;;;22.03;20.63;;;;;;;;;;5135277;27;20439;-76
2022/10/09 14:14:39;;;;;;;21.33;20.13;;;;;;;;;;5136005;27;20436;-76
2022/10/09 14:17:07;;;;;;;22.83;21.00;;;;;;;;;;5136257;27;20807;-75
2022/10/09 14:19:34;;;;;;;21.53;20.10;;;;;;;;;;5136417;27;20443;-76
2022/10/09 14:22:01;;;;;;;21.50;20.33;;;;;;;;;;5135493;27;20415;-76
2022/10/09 14:24:30;;;;;;;21.00;19.90;;;;;;;;;;5135890;27;20807;-75
2022/10/09 14:26:57;;;;;;;21.93;20.53;;;;;;;;;;5136437;27;20402;-75